Aviation Digital Data Service (ADDS)

Output produced by METARs form (2019 UTC 18 February 2018)
found at http://aviationweather.gov/adds/metars/
 
KILM 181721Z 1818/1918 05009KT P6SM SCT045 BKN070 
     FM190300 06005KT 4SM BR VCSH OVC015 
     FM190800 05004KT 3SM -RA BR OVC007 
     FM191100 05004KT 2SM BR VCSH OVC004 
     FM191500 14006KT 5SM BR BKN005 OVC015